Time;durP1;ratioP1;P1;durP2;ratioP2;P2;SDS_P1;SDS_P2;PMS_P1;PMS_P2;Temp;Humidity;BMP_temperature;BMP_pressure;BME280_temperature;BME280_humidity;BME280_pressure;Samples;Min_cycle;Max_cycle;Signal;HPM_P1;HPM_P2
2021/08/22 00:02:19;;;;;;;13.20;12.30;;;;;;;;;;4983343;28;24405;-59
2021/08/22 00:04:44;;;;;;;12.47;11.57;;;;;;;;;;4984964;28;24389;-60
2021/08/22 00:07:09;;;;;;;14.52;13.52;;;;;;;;;;4981409;28;24441;-60
2021/08/22 00:09:34;;;;;;;14.10;13.20;;;;;;;;;;4979283;28;24420;-60
2021/08/22 00:12:00;;;;;;;11.90;11.10;;;;;;;;;;4979485;28;24404;-60
2021/08/22 00:14:25;;;;;;;13.18;12.27;;;;;;;;;;4984713;28;24860;-60
2021/08/22 00:16:50;;;;;;;11.60;10.70;;;;;;;;;;4984785;28;24405;-60
2021/08/22 00:19:15;;;;;;;11.90;11.10;;;;;;;;;;4979445;28;24394;-60
2021/08/22 00:21:41;;;;;;;12.77;11.97;;;;;;;;;;4979506;28;24432;-60
2021/08/22 00:24:06;;;;;;;12.27;11.47;;;;;;;;;;4979033;28;24548;-59
2021/08/22 00:26:31;;;;;;;13.53;12.63;;;;;;;;;;4982746;28;24396;-60
2021/08/22 00:28:56;;;;;;;12.37;11.47;;;;;;;;;;4984694;28;24390;-60
2021/08/22 00:31:21;;;;;;;13.17;12.27;;;;;;;;;;4983051;28;24455;-60
2021/08/22 00:33:46;;;;;;;14.02;13.07;;;;;;;;;;4981417;28;24428;-59
2021/08/22 00:36:11;;;;;;;12.40;11.60;;;;;;;;;;4979340;28;24429;-60
2021/08/22 00:38:37;;;;;;;12.70;11.90;;;;;;;;;;4978760;28;25298;-60
2021/08/22 00:41:03;;;;;;;12.30;11.50;;;;;;;;;;4982932;28;24752;-60
2021/08/22 00:43:28;;;;;;;13.20;12.30;;;;;;;;;;4988620;28;24931;-60
2021/08/22 00:45:54;;;;;;;12.90;11.90;;;;;;;;;;4985100;28;24401;-60
2021/08/22 00:48:20;;;;;;;13.20;12.30;;;;;;;;;;4983053;28;24404;-60
2021/08/22 00:50:48;;;;;;;12.77;11.77;;;;;;;;;;4983125;28;24492;-59
2021/08/22 00:53:13;;;;;;;13.20;12.20;;;;;;;;;;4986255;28;24986;-60
2021/08/22 00:55:39;;;;;;;13.17;12.17;;;;;;;;;;4987781;28;24433;-59
2021/08/22 00:58:04;;;;;;;12.77;11.87;;;;;;;;;;4983005;28;24404;-59
2021/08/22 01:00:29;;;;;;;13.70;12.70;;;;;;;;;;4982715;28;24531;-60
2021/08/22 01:03:05;;;;;;;13.40;12.52;;;;;;;;;;4983501;28;24489;-60
2021/08/22 01:05:43;;;;;;;12.95;12.05;;;;;;;;;;4986192;28;24403;-59
2021/08/22 01:08:19;;;;;;;12.15;11.25;;;;;;;;;;4986043;28;24405;-60
2021/08/22 01:10:45;;;;;;;13.25;12.35;;;;;;;;;;4984589;28;24433;-59
2021/08/22 01:13:13;;;;;;;12.80;11.90;;;;;;;;;;4982712;28;24531;-60
2021/08/22 01:15:41;;;;;;;12.60;11.70;;;;;;;;;;4982379;28;24412;-60
2021/08/22 01:18:08;;;;;;;12.00;11.20;;;;;;;;;;4983838;28;24938;-60
2021/08/22 01:20:36;;;;;;;11.85;11.05;;;;;;;;;;4987609;28;24432;-60
2021/08/22 01:23:03;;;;;;;11.68;10.88;;;;;;;;;;4984447;28;24408;-59
2021/08/22 01:25:28;;;;;;;11.30;10.60;;;;;;;;;;4982744;28;24436;-59
2021/08/22 01:27:55;;;;;;;11.97;11.17;;;;;;;;;;4984445;28;24424;-59
2021/08/22 01:30:20;;;;;;;12.95;12.05;;;;;;;;;;4982135;28;24935;-59
2021/08/22 01:32:46;;;;;;;11.13;10.43;;;;;;;;;;4987530;28;24500;-59
2021/08/22 01:35:12;;;;;;;10.85;10.05;;;;;;;;;;4985483;28;24978;-59
2021/08/22 01:37:38;;;;;;;11.75;10.88;;;;;;;;;;4982348;28;24460;-59
2021/08/22 01:40:05;;;;;;;10.50;9.80;;;;;;;;;;4982213;28;24404;-60
2021/08/22 01:42:31;;;;;;;10.93;10.23;;;;;;;;;;4982039;28;24397;-60
2021/08/22 01:44:58;;;;;;;11.00;10.20;;;;;;;;;;4985525;28;24998;-60
2021/08/22 01:47:24;;;;;;;10.70;9.90;;;;;;;;;;4987288;28;24421;-59
2021/08/22 01:49:49;;;;;;;11.47;10.67;;;;;;;;;;4983965;28;24397;-60
2021/08/22 01:52:15;;;;;;;11.00;10.30;;;;;;;;;;4981831;28;25034;-59
2021/08/22 01:54:41;;;;;;;10.20;9.50;;;;;;;;;;4980255;28;24940;-59
2021/08/22 01:57:07;;;;;;;10.52;9.82;;;;;;;;;;4985644;28;24406;-59
2021/08/22 01:59:36;;;;;;;10.70;9.90;;;;;;;;;;4986954;28;24440;-60
2021/08/22 02:02:01;;;;;;;10.57;9.88;;;;;;;;;;4981465;28;24871;-59
2021/08/22 02:04:32;;;;;;;11.30;10.50;;;;;;;;;;4981632;28;24493;-60
2021/08/22 02:07:11;;;;;;;10.77;10.00;;;;;;;;;;4981760;28;24613;-59
2021/08/22 02:09:39;;;;;;;9.90;9.20;;;;;;;;;;4986661;28;24501;-59
2021/08/22 02:12:09;;;;;;;9.87;9.17;;;;;;;;;;4985445;28;24465;-60
2021/08/22 02:14:35;;;;;;;10.55;9.82;;;;;;;;;;4982735;28;24998;-60
2021/08/22 02:17:01;;;;;;;10.57;9.77;;;;;;;;;;4981572;28;24421;-60
2021/08/22 02:19:27;;;;;;;11.15;10.38;;;;;;;;;;4981726;28;24407;-60
2021/08/22 02:21:53;;;;;;;10.00;9.30;;;;;;;;;;4983407;28;24564;-60
2021/08/22 02:24:18;;;;;;;10.23;9.50;;;;;;;;;;4983034;28;24402;-60
2021/08/22 02:26:43;;;;;;;10.60;9.70;;;;;;;;;;4986463;28;24421;-59
2021/08/22 02:29:09;;;;;;;10.50;9.80;;;;;;;;;;4982786;28;24408;-60
2021/08/22 02:31:34;;;;;;;10.55;9.75;;;;;;;;;;4981143;28;24490;-60
2021/08/22 02:33:59;;;;;;;10.23;9.53;;;;;;;;;;4981264;28;24843;-60
2021/08/22 02:36:25;;;;;;;10.33;9.53;;;;;;;;;;4986307;28;24884;-60
2021/08/22 02:38:50;;;;;;;9.48;8.80;;;;;;;;;;4986271;28;24409;-59
2021/08/22 02:41:15;;;;;;;10.55;9.75;;;;;;;;;;4984291;28;24401;-60
2021/08/22 02:43:40;;;;;;;10.30;9.60;;;;;;;;;;4980708;28;24385;-60
2021/08/22 02:46:06;;;;;;;10.00;9.20;;;;;;;;;;4982644;28;24611;-60
2021/08/22 02:48:31;;;;;;;11.40;10.60;;;;;;;;;;4985889;28;24425;-60
2021/08/22 02:50:56;;;;;;;9.53;8.83;;;;;;;;;;4982613;28;24492;-60
2021/08/22 02:53:21;;;;;;;8.98;8.38;;;;;;;;;;4980171;28;24425;-60
2021/08/22 02:55:47;;;;;;;10.10;9.30;;;;;;;;;;4982252;28;24405;-60
2021/08/22 02:58:12;;;;;;;10.10;9.40;;;;;;;;;;4980468;28;24394;-60
2021/08/22 03:00:37;;;;;;;9.00;8.32;;;;;;;;;;4982074;28;24937;-59
2021/08/22 03:03:04;;;;;;;10.45;9.70;;;;;;;;;;4983221;28;22658;-60
2021/08/22 03:05:29;;;;;;;9.93;9.23;;;;;;;;;;4983423;28;24477;-59
2021/08/22 03:07:54;;;;;;;9.30;8.60;;;;;;;;;;4982051;28;25342;-59
2021/08/22 03:10:19;;;;;;;9.37;8.77;;;;;;;;;;4980194;28;24389;-59
2021/08/22 03:12:44;;;;;;;7.90;7.40;;;;;;;;;;4979877;28;24792;-59
2021/08/22 03:15:10;;;;;;;8.90;8.30;;;;;;;;;;4983519;28;25806;-60
2021/08/22 03:17:35;;;;;;;8.70;8.10;;;;;;;;;;4985365;28;24859;-59
2021/08/22 03:20:04;;;;;;;8.60;8.00;;;;;;;;;;4979813;28;24471;-60
2021/08/22 03:22:29;;;;;;;8.65;8.05;;;;;;;;;;4979989;28;24405;-58
2021/08/22 03:24:54;;;;;;;8.27;7.67;;;;;;;;;;4981664;28;24435;-59
2021/08/22 03:27:20;;;;;;;8.70;8.10;;;;;;;;;;4981328;28;24997;-59
2021/08/22 03:29:45;;;;;;;8.70;8.10;;;;;;;;;;4984926;28;24401;-59
2021/08/22 03:32:10;;;;;;;9.05;8.45;;;;;;;;;;4981417;28;24958;-59
2021/08/22 03:34:35;;;;;;;9.02;8.43;;;;;;;;;;4979892;28;24431;-59
2021/08/22 03:37:00;;;;;;;9.00;8.40;;;;;;;;;;4979951;28;24403;-59
2021/08/22 03:39:26;;;;;;;8.03;7.53;;;;;;;;;;4981639;28;24512;-59
2021/08/22 03:41:51;;;;;;;8.95;8.35;;;;;;;;;;4985199;28;24421;-59
2021/08/22 03:44:16;;;;;;;9.90;9.20;;;;;;;;;;4983431;28;24396;-59
2021/08/22 03:46:41;;;;;;;9.37;8.67;;;;;;;;;;4981447;28;24389;-59
2021/08/22 03:49:06;;;;;;;8.90;8.30;;;;;;;;;;4979590;28;24801;-59
2021/08/22 03:51:31;;;;;;;9.00;8.40;;;;;;;;;;4979716;28;24416;-60
2021/08/22 03:53:57;;;;;;;9.10;8.30;;;;;;;;;;4982620;28;24448;-59
2021/08/22 03:56:22;;;;;;;8.20;7.60;;;;;;;;;;4985039;28;24428;-60
2021/08/22 03:58:47;;;;;;;9.30;8.60;;;;;;;;;;4983160;28;24387;-60
2021/08/22 04:01:12;;;;;;;8.07;7.47;;;;;;;;;;4979557;28;24484;-60
2021/08/22 04:03:39;;;;;;;8.50;7.90;;;;;;;;;;4978972;28;24919;-60
2021/08/22 04:06:05;;;;;;;9.07;8.38;;;;;;;;;;4979223;28;24428;-59
2021/08/22 04:08:31;;;;;;;8.40;7.80;;;;;;;;;;4984493;28;24394;-59
2021/08/22 04:10:56;;;;;;;7.57;7.05;;;;;;;;;;4982618;28;24447;-59
2021/08/22 04:13:22;;;;;;;7.90;7.30;;;;;;;;;;4978938;28;24420;-60
2021/08/22 04:15:47;;;;;;;8.50;7.80;;;;;;;;;;4979814;28;24450;-59
2021/08/22 04:18:12;;;;;;;8.80;8.20;;;;;;;;;;4978648;28;24932;-59
2021/08/22 04:20:39;;;;;;;7.85;7.35;;;;;;;;;;4978612;28;24400;-61
2021/08/22 04:23:04;;;;;;;7.93;7.32;;;;;;;;;;4982801;28;24843;-60
2021/08/22 04:25:29;;;;;;;8.03;7.43;;;;;;;;;;4983876;28;25168;-60
2021/08/22 04:27:54;;;;;;;7.88;7.30;;;;;;;;;;4980517;28;24408;-60
2021/08/22 04:30:19;;;;;;;7.53;7.03;;;;;;;;;;4978934;28;24508;-60
2021/08/22 04:32:44;;;;;;;7.30;6.80;;;;;;;;;;4978794;28;24389;-60
2021/08/22 04:35:09;;;;;;;8.60;8.00;;;;;;;;;;4983763;28;24528;-59
2021/08/22 04:37:35;;;;;;;8.93;8.13;;;;;;;;;;4982582;28;24405;-60
2021/08/22 04:40:01;;;;;;;7.90;7.40;;;;;;;;;;4978505;28;24377;-59
2021/08/22 04:42:26;;;;;;;7.10;6.60;;;;;;;;;;4978717;28;24476;-59
2021/08/22 04:44:51;;;;;;;7.60;7.10;;;;;;;;;;4980285;28;25005;-59
2021/08/22 04:47:16;;;;;;;7.70;7.10;;;;;;;;;;4983703;28;24678;-60
2021/08/22 04:49:41;;;;;;;7.53;7.03;;;;;;;;;;4982369;28;25050;-59
2021/08/22 04:52:06;;;;;;;7.10;6.60;;;;;;;;;;4978576;28;24524;-60
2021/08/22 04:54:32;;;;;;;7.20;6.70;;;;;;;;;;4978309;28;24441;-59
2021/08/22 04:56:57;;;;;;;7.00;6.50;;;;;;;;;;4979984;28;24463;-59
2021/08/22 04:59:22;;;;;;;6.63;6.13;;;;;;;;;;4984035;28;24389;-59
2021/08/22 05:01:47;;;;;;;6.60;6.20;;;;;;;;;;4984106;28;24390;-59
2021/08/22 05:04:12;;;;;;;6.93;6.50;;;;;;;;;;4980488;28;24737;-59
2021/08/22 05:06:37;;;;;;;6.70;6.30;;;;;;;;;;4978634;28;24392;-60
2021/08/22 05:09:02;;;;;;;7.82;7.22;;;;;;;;;;4979022;28;24436;-60
2021/08/22 05:11:28;;;;;;;7.20;6.70;;;;;;;;;;4980656;28;24928;-59
2021/08/22 05:13:53;;;;;;;6.53;6.13;;;;;;;;;;4983953;28;24471;-59
2021/08/22 05:16:18;;;;;;;6.90;6.40;;;;;;;;;;4980432;28;24495;-59
2021/08/22 05:18:43;;;;;;;6.75;6.28;;;;;;;;;;4980584;28;24392;-60
2021/08/22 05:21:08;;;;;;;6.10;5.70;;;;;;;;;;4979105;28;24553;-60
2021/08/22 05:23:33;;;;;;;6.03;5.63;;;;;;;;;;4979036;28;24405;-60
2021/08/22 05:25:58;;;;;;;6.13;5.72;;;;;;;;;;4981839;28;24913;-60
2021/08/22 05:28:24;;;;;;;7.10;6.60;;;;;;;;;;4986244;28;24447;-60
2021/08/22 05:30:49;;;;;;;6.68;6.18;;;;;;;;;;4986099;28;24400;-60
2021/08/22 05:33:15;;;;;;;6.60;6.00;;;;;;;;;;4982702;28;24853;-60
2021/08/22 05:35:40;;;;;;;6.80;6.20;;;;;;;;;;4982435;28;24456;-61
2021/08/22 05:38:06;;;;;;;6.00;5.50;;;;;;;;;;4983891;28;24479;-59
2021/08/22 05:40:31;;;;;;;5.60;5.20;;;;;;;;;;4987546;28;24396;-59
2021/08/22 05:42:56;;;;;;;5.90;5.50;;;;;;;;;;4983954;28;24563;-61
2021/08/22 05:45:21;;;;;;;6.00;5.60;;;;;;;;;;4983942;28;24717;-61
2021/08/22 05:47:47;;;;;;;6.20;5.80;;;;;;;;;;4981847;28;24480;-60
2021/08/22 05:50:12;;;;;;;5.70;5.30;;;;;;;;;;4981900;28;24439;-60
2021/08/22 05:52:37;;;;;;;5.53;5.13;;;;;;;;;;4983629;28;24429;-61
2021/08/22 05:55:06;;;;;;;6.00;5.60;;;;;;;;;;4986525;28;24448;-61
2021/08/22 05:57:32;;;;;;;5.30;4.90;;;;;;;;;;4984954;28;24401;-61
2021/08/22 05:59:57;;;;;;;5.50;5.10;;;;;;;;;;4981773;28;24478;-61
2021/08/22 06:02:22;;;;;;;5.70;5.30;;;;;;;;;;4983409;28;24389;-61
2021/08/22 06:04:47;;;;;;;5.90;5.40;;;;;;;;;;4981776;28;24756;-59
2021/08/22 06:07:18;;;;;;;5.97;5.57;;;;;;;;;;4983090;28;24389;-59
2021/08/22 06:09:43;;;;;;;6.60;6.00;;;;;;;;;;4987122;28;24385;-60
2021/08/22 06:12:09;;;;;;;7.70;7.00;;;;;;;;;;4983174;28;24471;-60
2021/08/22 06:14:34;;;;;;;6.07;5.47;;;;;;;;;;4981544;28;24504;-59
2021/08/22 06:16:59;;;;;;;5.60;5.18;;;;;;;;;;4977114;28;24443;-59
2021/08/22 06:19:24;;;;;;;6.55;5.85;;;;;;;;;;4986560;28;25022;-60
2021/08/22 06:21:49;;;;;;;8.57;7.78;;;;;;;;;;4986481;28;24389;-59
2021/08/22 06:24:14;;;;;;;9.17;8.47;;;;;;;;;;4984832;28;24528;-59
2021/08/22 06:26:39;;;;;;;10.05;9.30;;;;;;;;;;4980911;28;24548;-59
2021/08/22 06:29:04;;;;;;;9.52;8.73;;;;;;;;;;4981046;28;24463;-59
2021/08/22 06:31:30;;;;;;;10.38;9.57;;;;;;;;;;4981245;28;24412;-59
2021/08/22 06:33:55;;;;;;;9.15;8.45;;;;;;;;;;4984298;28;24433;-62
2021/08/22 06:36:21;;;;;;;8.57;7.97;;;;;;;;;;4986442;28;24848;-59
2021/08/22 06:38:46;;;;;;;10.20;9.40;;;;;;;;;;4982299;28;24396;-60
2021/08/22 06:41:11;;;;;;;9.90;9.10;;;;;;;;;;4980464;28;24385;-60
2021/08/22 06:43:36;;;;;;;9.57;8.88;;;;;;;;;;4980730;28;24541;-59
2021/08/22 06:46:02;;;;;;;8.00;7.40;;;;;;;;;;4984297;28;24404;-60
2021/08/22 06:48:27;;;;;;;9.70;8.80;;;;;;;;;;4985698;28;24424;-60
2021/08/22 06:50:53;;;;;;;8.80;8.20;;;;;;;;;;4982509;28;24400;-60
2021/08/22 06:53:18;;;;;;;8.00;7.40;;;;;;;;;;4980703;28;24941;-58
2021/08/22 06:55:43;;;;;;;7.53;7.03;;;;;;;;;;4980370;28;24459;-60
2021/08/22 06:58:09;;;;;;;8.67;8.00;;;;;;;;;;4986032;28;24396;-60
2021/08/22 07:00:34;;;;;;;9.90;9.20;;;;;;;;;;4985960;28;24805;-60
2021/08/22 07:02:59;;;;;;;10.27;9.53;;;;;;;;;;4980544;28;24476;-60
2021/08/22 07:05:25;;;;;;;11.10;10.30;;;;;;;;;;4982421;28;24953;-59
2021/08/22 07:07:50;;;;;;;9.85;9.15;;;;;;;;;;4980348;28;24440;-59
2021/08/22 07:10:15;;;;;;;8.20;7.60;;;;;;;;;;4983860;28;24399;-60
2021/08/22 07:12:40;;;;;;;9.00;8.40;;;;;;;;;;4985589;28;24994;-60
2021/08/22 07:15:05;;;;;;;10.13;9.43;;;;;;;;;;4980002;28;24423;-59
2021/08/22 07:17:30;;;;;;;7.80;7.20;;;;;;;;;;4979913;28;24394;-60
2021/08/22 07:19:56;;;;;;;7.50;7.00;;;;;;;;;;4980574;28;24412;-59
2021/08/22 07:22:21;;;;;;;7.50;7.00;;;;;;;;;;4985391;28;25174;-61
2021/08/22 07:24:46;;;;;;;7.60;7.10;;;;;;;;;;4985503;28;24427;-61
2021/08/22 07:27:11;;;;;;;8.10;7.60;;;;;;;;;;4981510;28;24408;-60
2021/08/22 07:29:37;;;;;;;9.10;8.20;;;;;;;;;;4979815;28;24408;-60
2021/08/22 07:32:03;;;;;;;9.27;8.47;;;;;;;;;;4979765;28;24405;-61
2021/08/22 07:34:28;;;;;;;8.00;7.40;;;;;;;;;;4983477;28;24861;-60
2021/08/22 07:36:53;;;;;;;8.25;7.65;;;;;;;;;;4985021;28;24419;-60
2021/08/22 07:39:18;;;;;;;7.77;7.23;;;;;;;;;;4981523;28;24498;-60
2021/08/22 07:41:43;;;;;;;8.30;7.60;;;;;;;;;;4981457;28;24482;-60
2021/08/22 07:44:08;;;;;;;8.73;8.03;;;;;;;;;;4979721;28;24488;-61
2021/08/22 07:46:34;;;;;;;8.70;7.90;;;;;;;;;;4983364;28;24400;-63
2021/08/22 07:48:59;;;;;;;7.50;6.90;;;;;;;;;;4982768;28;24756;-61
2021/08/22 07:51:24;;;;;;;7.70;7.10;;;;;;;;;;4983071;28;24416;-59
2021/08/22 07:53:49;;;;;;;8.43;7.73;;;;;;;;;;4979460;28;24457;-60
2021/08/22 07:56:14;;;;;;;6.87;6.37;;;;;;;;;;4979659;28;24520;-60
2021/08/22 07:58:40;;;;;;;7.03;6.53;;;;;;;;;;4983020;28;24393;-60
2021/08/22 08:01:05;;;;;;;7.53;6.90;;;;;;;;;;4983046;28;24389;-60
2021/08/22 08:03:30;;;;;;;8.25;7.65;;;;;;;;;;4984770;28;24400;-61
2021/08/22 08:05:55;;;;;;;6.90;6.40;;;;;;;;;;4981131;28;24691;-60
2021/08/22 08:08:23;;;;;;;7.87;7.27;;;;;;;;;;4979235;28;24393;-60
2021/08/22 08:10:49;;;;;;;7.32;6.70;;;;;;;;;;4980775;28;25072;-60
2021/08/22 08:13:14;;;;;;;8.60;7.90;;;;;;;;;;4982689;28;24491;-60
2021/08/22 08:15:39;;;;;;;9.10;8.40;;;;;;;;;;4984558;28;24416;-60
2021/08/22 08:18:04;;;;;;;8.80;8.10;;;;;;;;;;4980581;28;24416;-61
2021/08/22 08:20:29;;;;;;;9.17;8.47;;;;;;;;;;4979118;28;24400;-60
2021/08/22 08:22:55;;;;;;;9.30;8.60;;;;;;;;;;4980922;28;24474;-60
2021/08/22 08:25:20;;;;;;;8.50;7.80;;;;;;;;;;4979692;28;24507;-60
2021/08/22 08:27:45;;;;;;;9.30;8.70;;;;;;;;;;4982560;28;24408;-61
2021/08/22 08:30:11;;;;;;;7.97;7.40;;;;;;;;;;4982756;28;24516;-60
2021/08/22 08:32:37;;;;;;;8.20;7.60;;;;;;;;;;4980840;28;24404;-59
2021/08/22 08:35:02;;;;;;;8.70;8.00;;;;;;;;;;4979069;28;24460;-60
2021/08/22 08:37:27;;;;;;;8.30;7.70;;;;;;;;;;4979173;28;24432;-60
2021/08/22 08:39:52;;;;;;;8.47;7.70;;;;;;;;;;4980625;28;24468;-60
2021/08/22 08:42:17;;;;;;;7.95;7.25;;;;;;;;;;4984123;28;24493;-60
2021/08/22 08:44:43;;;;;;;8.13;7.53;;;;;;;;;;4984542;28;24448;-60
2021/08/22 08:47:09;;;;;;;9.30;8.50;;;;;;;;;;4978757;28;24394;-60
2021/08/22 08:49:57;;;;;;;8.63;7.93;;;;;;;;;;4978884;28;24397;-60
2021/08/22 08:52:28;;;;;;;8.43;7.72;;;;;;;;;;4967202;28;24479;-60
2021/08/22 08:55:01;;;;;;;7.88;7.30;;;;;;;;;;4980417;28;24451;-60
2021/08/22 08:57:27;;;;;;;9.05;8.35;;;;;;;;;;4984266;28;24910;-60
2021/08/22 08:59:52;;;;;;;8.20;7.50;;;;;;;;;;4982174;28;24416;-60
2021/08/22 09:02:17;;;;;;;9.47;8.63;;;;;;;;;;4979400;28;24992;-60
2021/08/22 09:04:42;;;;;;;8.32;7.72;;;;;;;;;;4982875;28;25577;-60
2021/08/22 09:07:24;;;;;;;9.13;8.43;;;;;;;;;;4984250;28;24493;-60
2021/08/22 09:10:08;;;;;;;8.70;8.10;;;;;;;;;;4987692;28;24393;-60
2021/08/22 09:12:51;;;;;;;6.83;6.33;;;;;;;;;;4986442;28;24488;-61
2021/08/22 09:15:36;;;;;;;8.20;7.60;;;;;;;;;;4981956;28;24429;-61
2021/08/22 09:18:20;;;;;;;8.75;8.13;;;;;;;;;;4982305;28;24429;-61
2021/08/22 09:21:00;;;;;;;10.30;9.50;;;;;;;;;;4987813;28;24395;-60
2021/08/22 09:23:25;;;;;;;8.40;7.80;;;;;;;;;;4987806;28;24815;-61
2021/08/22 09:26:09;;;;;;;9.48;8.77;;;;;;;;;;4983852;28;24635;-60
2021/08/22 09:28:50;;;;;;;8.17;7.60;;;;;;;;;;4982143;28;24437;-61
2021/08/22 09:31:33;;;;;;;9.50;8.50;;;;;;;;;;4982106;28;24456;-60
2021/08/22 09:34:17;;;;;;;8.23;7.63;;;;;;;;;;4983624;28;24421;-61
2021/08/22 09:37:01;;;;;;;7.90;7.35;;;;;;;;;;4987690;28;24443;-61
2021/08/22 09:39:44;;;;;;;8.10;7.50;;;;;;;;;;4983509;28;24413;-62
2021/08/22 09:42:28;;;;;;;8.80;8.20;;;;;;;;;;4981879;28;24432;-61
2021/08/22 09:45:12;;;;;;;7.43;6.82;;;;;;;;;;4983789;28;24409;-61
2021/08/22 09:47:46;;;;;;;6.88;6.38;;;;;;;;;;4981584;28;24512;-61
2021/08/22 09:50:40;;;;;;;8.68;8.07;;;;;;;;;;4985438;28;25008;-61
2021/08/22 09:53:24;;;;;;;8.88;8.18;;;;;;;;;;4985076;28;24915;-62
2021/08/22 09:56:08;;;;;;;8.05;7.25;;;;;;;;;;4983550;28;24413;-62
2021/08/22 09:58:44;;;;;;;7.43;6.82;;;;;;;;;;4981654;28;24451;-62
2021/08/22 10:01:18;;;;;;;8.43;7.87;;;;;;;;;;4981343;28;24448;-60
2021/08/22 10:04:02;;;;;;;9.40;8.60;;;;;;;;;;4981598;28;24400;-61
2021/08/22 10:06:36;;;;;;;8.40;7.80;;;;;;;;;;4986606;28;24411;-61
2021/08/22 10:09:21;;;;;;;8.20;7.60;;;;;;;;;;4983031;28;24772;-62
2021/08/22 10:11:56;;;;;;;9.47;8.77;;;;;;;;;;4982605;28;24523;-61
2021/08/22 10:14:22;;;;;;;8.70;8.02;;;;;;;;;;4980112;28;24820;-61
2021/08/22 10:16:49;;;;;;;7.93;7.43;;;;;;;;;;4981131;28;24475;-61
2021/08/22 10:19:14;;;;;;;7.60;7.07;;;;;;;;;;4982839;28;24432;-61
2021/08/22 10:21:39;;;;;;;8.73;8.10;;;;;;;;;;4986731;28;24385;-62
2021/08/22 10:24:30;;;;;;;6.50;6.10;;;;;;;;;;4982980;28;24448;-62
2021/08/22 10:26:57;;;;;;;6.80;6.30;;;;;;;;;;4982874;28;24772;-61
2021/08/22 10:29:29;;;;;;;6.80;6.30;;;;;;;;;;4980901;28;24398;-63
2021/08/22 10:31:54;;;;;;;7.10;6.60;;;;;;;;;;4983087;28;24470;-62
2021/08/22 10:34:20;;;;;;;5.80;5.40;;;;;;;;;;4986254;28;24436;-63
2021/08/22 10:36:45;;;;;;;6.30;5.90;;;;;;;;;;4984621;28;24997;-62
2021/08/22 10:39:23;;;;;;;6.90;6.30;;;;;;;;;;4980161;28;24400;-63
2021/08/22 10:41:49;;;;;;;5.90;5.50;;;;;;;;;;4982373;28;24481;-63
2021/08/22 10:44:32;;;;;;;6.20;5.80;;;;;;;;;;4980905;28;25421;-63
2021/08/22 10:46:58;;;;;;;6.10;5.70;;;;;;;;;;4984010;28;24406;-62
2021/08/22 10:49:42;;;;;;;6.30;5.80;;;;;;;;;;4985535;28;25009;-62
2021/08/22 10:52:21;;;;;;;6.20;5.70;;;;;;;;;;4980602;28;24447;-63
2021/08/22 10:55:05;;;;;;;6.32;5.82;;;;;;;;;;4980493;28;24532;-65
2021/08/22 10:57:42;;;;;;;5.63;5.22;;;;;;;;;;4980168;28;24548;-64
2021/08/22 11:00:21;;;;;;;6.03;5.63;;;;;;;;;;4980409;28;24927;-63
2021/08/22 11:02:46;;;;;;;5.88;5.38;;;;;;;;;;4984082;28;24483;-64
2021/08/22 11:05:16;;;;;;;6.53;6.07;;;;;;;;;;4983990;28;24412;-65
2021/08/22 11:07:48;;;;;;;6.30;5.80;;;;;;;;;;4982329;28;24409;-63
2021/08/22 11:10:13;;;;;;;6.00;5.60;;;;;;;;;;4980109;28;24401;-64
2021/08/22 11:12:39;;;;;;;5.97;5.57;;;;;;;;;;4980302;28;24981;-63
2021/08/22 11:15:04;;;;;;;5.87;5.47;;;;;;;;;;4981830;28;25022;-63
2021/08/22 11:17:30;;;;;;;5.32;5.00;;;;;;;;;;4985387;28;24417;-63
2021/08/22 11:20:15;;;;;;;5.67;5.27;;;;;;;;;;4985046;28;24548;-63
2021/08/22 11:22:41;;;;;;;5.82;5.43;;;;;;;;;;4979691;28;24815;-64
2021/08/22 11:25:07;;;;;;;4.82;4.53;;;;;;;;;;4979722;28;24641;-63
2021/08/22 11:27:32;;;;;;;5.00;4.70;;;;;;;;;;4966030;28;25497;-63
2021/08/22 11:29:59;;;;;;;5.77;5.40;;;;;;;;;;4985008;28;24393;-63
2021/08/22 11:32:24;;;;;;;4.90;4.60;;;;;;;;;;4967311;28;24428;-63
2021/08/22 11:34:50;;;;;;;5.80;5.40;;;;;;;;;;4981696;28;24820;-63
2021/08/22 11:37:18;;;;;;;5.50;5.10;;;;;;;;;;4979569;28;24508;-63
2021/08/22 11:39:44;;;;;;;5.50;5.10;;;;;;;;;;4979419;28;24918;-62
2021/08/22 11:42:09;;;;;;;4.63;4.32;;;;;;;;;;4979452;28;24393;-62
2021/08/22 11:44:35;;;;;;;5.22;4.90;;;;;;;;;;4985060;28;24915;-63
2021/08/22 11:47:00;;;;;;;5.10;4.70;;;;;;;;;;4982975;28;24396;-63
2021/08/22 11:49:25;;;;;;;5.63;5.22;;;;;;;;;;4979058;28;25117;-66
2021/08/22 11:51:51;;;;;;;5.77;5.37;;;;;;;;;;4981261;28;24405;-63
2021/08/22 11:54:17;;;;;;;5.20;4.90;;;;;;;;;;4980918;28;24456;-66
2021/08/22 11:56:42;;;;;;;5.30;5.00;;;;;;;;;;4985021;28;24417;-64
2021/08/22 11:59:26;;;;;;;5.70;5.30;;;;;;;;;;4980926;28;24491;-63
2021/08/22 12:02:10;;;;;;;6.00;5.60;;;;;;;;;;4980870;28;24954;-65
2021/08/22 12:04:36;;;;;;;5.90;5.50;;;;;;;;;;4979151;28;24409;-63
2021/08/22 12:07:01;;;;;;;6.30;5.80;;;;;;;;;;4982988;28;24450;-64
2021/08/22 12:09:27;;;;;;;6.20;5.70;;;;;;;;;;4984446;28;24927;-62
2021/08/22 12:11:52;;;;;;;5.70;5.20;;;;;;;;;;4983200;28;24967;-62
2021/08/22 12:14:18;;;;;;;6.70;6.30;;;;;;;;;;4979102;28;24505;-62
2021/08/22 12:16:54;;;;;;;6.05;5.55;;;;;;;;;;4979244;28;25379;-63
2021/08/22 12:19:20;;;;;;;6.30;5.70;;;;;;;;;;4980776;28;24408;-63
2021/08/22 12:21:46;;;;;;;5.70;5.30;;;;;;;;;;4984560;28;24443;-62
2021/08/22 12:24:21;;;;;;;5.30;5.00;;;;;;;;;;4980821;28;24780;-62
2021/08/22 12:26:54;;;;;;;5.40;5.00;;;;;;;;;;4981085;28;24496;-63
2021/08/22 12:29:26;;;;;;;4.50;4.20;;;;;;;;;;4978662;28;24932;-63
2021/08/22 12:31:52;;;;;;;4.43;4.13;;;;;;;;;;4980309;28;24955;-63
2021/08/22 12:34:17;;;;;;;4.10;3.80;;;;;;;;;;4984400;28;24784;-63
2021/08/22 12:36:43;;;;;;;4.10;3.80;;;;;;;;;;4984634;28;25055;-63
2021/08/22 12:39:09;;;;;;;3.40;3.20;;;;;;;;;;4982636;28;24382;-62
2021/08/22 12:41:46;;;;;;;4.20;3.80;;;;;;;;;;4984818;28;24435;-62
2021/08/22 12:44:14;;;;;;;3.60;3.40;;;;;;;;;;4983088;28;24446;-62
2021/08/22 12:46:40;;;;;;;3.83;3.60;;;;;;;;;;4986465;28;24605;-62
2021/08/22 12:49:05;;;;;;;3.50;3.30;;;;;;;;;;4986204;28;24971;-62
2021/08/22 12:51:31;;;;;;;4.00;3.80;;;;;;;;;;4986402;28;24419;-62
2021/08/22 12:53:56;;;;;;;3.40;3.20;;;;;;;;;;4984256;28;24448;-63
2021/08/22 12:56:22;;;;;;;3.83;3.63;;;;;;;;;;4982478;28;24667;-63
2021/08/22 12:58:48;;;;;;;3.45;3.25;;;;;;;;;;4986520;28;24440;-65
2021/08/22 13:01:13;;;;;;;3.40;3.20;;;;;;;;;;4986406;28;24411;-63
2021/08/22 13:03:39;;;;;;;4.30;4.00;;;;;;;;;;4984263;28;24403;-62
2021/08/22 13:06:04;;;;;;;4.40;4.10;;;;;;;;;;4982781;28;25006;-62
2021/08/22 13:08:30;;;;;;;4.63;4.32;;;;;;;;;;4982121;28;24950;-62
2021/08/22 13:10:55;;;;;;;4.30;4.00;;;;;;;;;;4984304;28;25340;-63
2021/08/22 13:13:20;;;;;;;5.10;4.70;;;;;;;;;;4987709;28;25348;-63
2021/08/22 13:15:45;;;;;;;4.50;4.20;;;;;;;;;;4986276;28;24943;-63
2021/08/22 13:18:10;;;;;;;4.10;3.80;;;;;;;;;;4982450;28;24488;-63
2021/08/22 13:20:36;;;;;;;4.50;4.20;;;;;;;;;;4981699;28;24677;-63
2021/08/22 13:23:01;;;;;;;5.33;4.93;;;;;;;;;;4986370;28;24448;-63
2021/08/22 13:25:28;;;;;;;4.57;4.28;;;;;;;;;;4987515;28;24401;-63
2021/08/22 13:27:53;;;;;;;4.53;4.22;;;;;;;;;;4984243;28;24412;-62
2021/08/22 13:30:18;;;;;;;5.20;4.88;;;;;;;;;;4981780;28;24401;-62
2021/08/22 13:32:44;;;;;;;5.80;5.40;;;;;;;;;;4981773;28;24456;-63
2021/08/22 13:35:09;;;;;;;4.50;4.10;;;;;;;;;;4985762;28;24464;-63
2021/08/22 13:37:34;;;;;;;4.80;4.50;;;;;;;;;;4987451;28;24423;-64
2021/08/22 13:39:59;;;;;;;4.47;4.18;;;;;;;;;;4985281;28;24568;-64
2021/08/22 13:42:24;;;;;;;4.40;4.10;;;;;;;;;;4981802;28;24396;-64
2021/08/22 13:44:49;;;;;;;4.05;3.83;;;;;;;;;;4983995;28;24396;-63
2021/08/22 13:47:15;;;;;;;4.80;4.40;;;;;;;;;;4982091;28;25509;-62
2021/08/22 13:49:40;;;;;;;4.70;4.40;;;;;;;;;;4986789;28;24382;-63
2021/08/22 13:52:05;;;;;;;4.60;4.30;;;;;;;;;;4985097;28;24891;-62
2021/08/22 13:54:31;;;;;;;4.00;3.70;;;;;;;;;;4981116;28;24433;-62
2021/08/22 13:56:56;;;;;;;4.40;4.10;;;;;;;;;;4981632;28;25058;-62
2021/08/22 13:59:21;;;;;;;5.40;5.03;;;;;;;;;;4983213;28;24492;-63
2021/08/22 14:01:46;;;;;;;5.00;4.70;;;;;;;;;;4985289;28;24396;-63
2021/08/22 14:04:11;;;;;;;4.80;4.50;;;;;;;;;;4984712;28;24398;-63
2021/08/22 14:06:36;;;;;;;5.13;4.72;;;;;;;;;;4985191;28;25109;-62
2021/08/22 14:09:02;;;;;;;4.20;3.90;;;;;;;;;;4981070;28;24946;-61
2021/08/22 14:11:27;;;;;;;4.38;4.13;;;;;;;;;;4983093;28;24401;-63
2021/08/22 14:13:53;;;;;;;4.77;4.47;;;;;;;;;;4981542;28;24429;-63
2021/08/22 14:16:18;;;;;;;4.80;4.50;;;;;;;;;;4982892;28;24938;-63
2021/08/22 14:18:43;;;;;;;4.80;4.50;;;;;;;;;;4986211;28;24401;-63
2021/08/22 14:21:09;;;;;;;5.10;4.70;;;;;;;;;;4984806;28;24965;-63
2021/08/22 14:23:34;;;;;;;5.20;4.70;;;;;;;;;;4980951;28;24407;-63
2021/08/22 14:25:59;;;;;;;5.00;4.70;;;;;;;;;;4963067;28;24845;-62
2021/08/22 14:28:24;;;;;;;5.10;4.78;;;;;;;;;;4981168;28;24479;-62
2021/08/22 14:30:50;;;;;;;4.80;4.50;;;;;;;;;;4982394;28;24824;-62
2021/08/22 14:33:15;;;;;;;4.80;4.50;;;;;;;;;;4986357;28;24389;-62
2021/08/22 14:35:40;;;;;;;5.00;4.70;;;;;;;;;;4985938;28;24401;-63
2021/08/22 14:38:05;;;;;;;4.80;4.50;;;;;;;;;;4980968;28;24421;-63
2021/08/22 14:40:30;;;;;;;4.70;4.40;;;;;;;;;;4980183;28;24803;-63